Time;durP1;ratioP1;P1;durP2;ratioP2;P2;SDS_P1;SDS_P2;PMS_P1;PMS_P2;Temp;Humidity;BMP_temperature;BMP_pressure;BME280_temperature;BME280_humidity;BME280_pressure;Samples;Min_cycle;Max_cycle;Signal;HPM_P1;HPM_P2
2021/04/24 00:01:01;;;;;;;28.33;13.90;;;;;;;;;;5053679;28;20163;-62
2021/04/24 00:03:46;;;;;;;26.20;13.05;;;;;;;;;;5053599;28;20088;-62
2021/04/24 00:06:32;;;;;;;30.60;13.15;;;;;;;;;;5051190;28;20049;-62
2021/04/24 00:09:17;;;;;;;34.35;14.00;;;;;;;;;;5033520;28;20120;-62
2021/04/24 00:12:03;;;;;;;34.22;14.45;;;;;;;;;;5033702;28;20095;-62
2021/04/24 00:14:48;;;;;;;23.23;11.73;;;;;;;;;;5034187;28;20554;-62
2021/04/24 00:17:34;;;;;;;26.33;12.90;;;;;;;;;;5033688;28;20046;-62
2021/04/24 00:20:20;;;;;;;35.08;13.35;;;;;;;;;;5033330;28;20461;-62
2021/04/24 00:23:06;;;;;;;29.67;13.27;;;;;;;;;;5033334;28;20415;-62
2021/04/24 00:25:51;;;;;;;31.48;14.88;;;;;;;;;;5050477;28;20402;-62
2021/04/24 00:28:36;;;;;;;24.88;12.13;;;;;;;;;;5053295;28;20049;-62
2021/04/24 00:31:21;;;;;;;29.60;12.98;;;;;;;;;;5052904;28;20056;-62
2021/04/24 00:34:07;;;;;;;23.67;12.27;;;;;;;;;;5094721;22;20053;-63
2021/04/24 00:36:52;;;;;;;27.13;12.40;;;;;;;;;;5033214;28;20057;-63
2021/04/24 00:39:38;;;;;;;22.85;11.60;;;;;;;;;;5032728;28;20046;-63
2021/04/24 00:42:23;;;;;;;20.63;11.45;;;;;;;;;;5032985;28;20045;-63
2021/04/24 00:45:10;;;;;;;24.77;11.35;;;;;;;;;;5044408;28;20131;-63
2021/04/24 00:47:56;;;;;;;24.58;12.52;;;;;;;;;;5072816;28;20049;-63
2021/04/24 00:50:41;;;;;;;24.33;12.07;;;;;;;;;;5072311;28;20045;-63
2021/04/24 00:53:26;;;;;;;24.23;11.15;;;;;;;;;;5072489;28;20507;-63
2021/04/24 00:56:11;;;;;;;21.27;10.80;;;;;;;;;;5061055;28;20052;-63
2021/04/24 00:58:57;;;;;;;19.88;9.50;;;;;;;;;;5052566;28;20045;-63
2021/04/24 01:01:42;;;;;;;24.45;12.38;;;;;;;;;;5037375;28;20437;-63
2021/04/24 01:04:27;;;;;;;24.88;11.18;;;;;;;;;;5052530;28;20144;-63
2021/04/24 01:07:12;;;;;;;17.77;9.75;;;;;;;;;;5068849;28;20052;-63
2021/04/24 01:09:58;;;;;;;21.55;12.25;;;;;;;;;;5072207;28;20041;-62
2021/04/24 01:12:43;;;;;;;43.55;18.45;;;;;;;;;;5072466;28;20433;-62
2021/04/24 01:15:29;;;;;;;57.92;19.73;;;;;;;;;;5072220;28;20045;-63
2021/04/24 01:18:14;;;;;;;40.40;17.13;;;;;;;;;;5032483;28;20069;-63
2021/04/24 01:21:00;;;;;;;48.45;18.45;;;;;;;;;;5032109;28;20562;-63
2021/04/24 01:23:46;;;;;;;42.35;17.05;;;;;;;;;;5032167;28;20431;-63
2021/04/24 01:26:31;;;;;;;39.92;16.83;;;;;;;;;;5048061;28;20108;-63
2021/04/24 01:29:16;;;;;;;44.75;17.30;;;;;;;;;;5057963;28;20067;-63
2021/04/24 01:32:01;;;;;;;40.00;15.63;;;;;;;;;;5052084;28;20063;-63
2021/04/24 01:34:47;;;;;;;43.38;17.08;;;;;;;;;;5051768;28;20076;-63
2021/04/24 01:37:33;;;;;;;43.70;16.38;;;;;;;;;;5052207;28;20048;-63
2021/04/24 01:40:18;;;;;;;38.88;15.32;;;;;;;;;;5051689;28;20128;-62
2021/04/24 01:43:06;;;;;;;38.88;15.57;;;;;;;;;;5051975;28;20049;-63
2021/04/24 01:45:51;;;;;;;40.65;15.57;;;;;;;;;;5052010;28;20155;-63
2021/04/24 01:48:37;;;;;;;32.33;13.70;;;;;;;;;;5067588;28;20048;-63
2021/04/24 01:51:22;;;;;;;35.63;14.25;;;;;;;;;;5071204;28;20059;-62
2021/04/24 01:54:07;;;;;;;35.40;14.85;;;;;;;;;;5050991;28;20048;-64
2021/04/24 01:56:57;;;;;;;40.72;15.48;;;;;;;;;;5051811;28;20045;-63
2021/04/24 01:59:42;;;;;;;37.70;13.95;;;;;;;;;;5031605;28;20077;-63
2021/04/24 02:02:28;;;;;;;35.33;13.75;;;;;;;;;;5031909;28;20050;-63
2021/04/24 02:05:15;;;;;;;40.22;16.23;;;;;;;;;;5031795;28;20559;-63
2021/04/24 02:08:05;;;;;;;40.47;16.38;;;;;;;;;;5041831;28;20487;-63
2021/04/24 02:10:52;;;;;;;35.67;14.27;;;;;;;;;;5071540;28;20041;-63
2021/04/24 02:13:40;;;;;;;41.00;15.02;;;;;;;;;;5072024;28;20052;-63
2021/04/24 02:16:26;;;;;;;40.75;15.80;;;;;;;;;;5075329;28;20392;-63
2021/04/24 02:19:11;;;;;;;36.30;15.27;;;;;;;;;;5063630;28;20052;-63
2021/04/24 02:21:57;;;;;;;41.03;16.80;;;;;;;;;;5035556;28;20060;-63
2021/04/24 02:24:49;;;;;;;30.65;13.55;;;;;;;;;;5035704;28;20057;-63
2021/04/24 02:27:35;;;;;;;39.20;16.38;;;;;;;;;;5047975;28;20041;-63
2021/04/24 02:30:23;;;;;;;39.92;16.33;;;;;;;;;;5073302;28;20496;-63
2021/04/24 02:33:09;;;;;;;48.38;18.42;;;;;;;;;;5075297;28;20044;-63
2021/04/24 02:35:55;;;;;;;38.85;16.33;;;;;;;;;;5075178;28;20041;-63
2021/04/24 02:38:40;;;;;;;31.88;13.70;;;;;;;;;;5073864;28;20051;-63
2021/04/24 02:41:26;;;;;;;32.28;14.38;;;;;;;;;;5055089;28;20079;-64
2021/04/24 02:44:11;;;;;;;43.47;15.85;;;;;;;;;;5055094;28;20045;-64
2021/04/24 02:46:57;;;;;;;42.65;16.92;;;;;;;;;;5055100;28;20041;-64
2021/04/24 02:49:43;;;;;;;33.33;13.63;;;;;;;;;;5061491;28;20053;-63
2021/04/24 02:52:28;;;;;;;39.25;13.93;;;;;;;;;;5075074;28;20053;-63
2021/04/24 02:55:14;;;;;;;31.70;15.40;;;;;;;;;;5074956;28;20501;-64
2021/04/24 02:57:59;;;;;;;28.95;12.75;;;;;;;;;;5075109;28;20072;-64
2021/04/24 03:00:45;;;;;;;22.05;11.57;;;;;;;;;;5062137;28;20059;-64
2021/04/24 03:03:30;;;;;;;25.17;11.15;;;;;;;;;;5054707;28;20074;-63
2021/04/24 03:06:15;;;;;;;25.48;10.60;;;;;;;;;;5054923;28;20140;-63
2021/04/24 03:09:01;;;;;;;20.70;9.60;;;;;;;;;;5054861;28;20048;-63
2021/04/24 03:11:47;;;;;;;16.95;8.82;;;;;;;;;;5072296;28;20045;-63
2021/04/24 03:14:32;;;;;;;21.67;10.35;;;;;;;;;;5074574;28;20549;-64
2021/04/24 03:17:17;;;;;;;35.63;14.30;;;;;;;;;;5074653;28;20046;-63
2021/04/24 03:20:04;;;;;;;24.92;11.95;;;;;;;;;;5073255;28;20063;-63
2021/04/24 03:22:49;;;;;;;41.08;17.52;;;;;;;;;;5054537;28;20053;-64
2021/04/24 03:25:35;;;;;;;45.88;17.98;;;;;;;;;;5053136;28;20053;-63
2021/04/24 03:28:20;;;;;;;55.90;19.50;;;;;;;;;;5054382;28;20048;-63
2021/04/24 03:31:07;;;;;;;47.20;18.92;;;;;;;;;;5054962;28;20041;-63
2021/04/24 03:33:52;;;;;;;47.80;19.02;;;;;;;;;;5039258;28;20083;-63
2021/04/24 03:36:37;;;;;;;59.65;22.92;;;;;;;;;;5054153;28;20163;-63
2021/04/24 03:39:24;;;;;;;39.38;16.60;;;;;;;;;;5053862;28;20056;-63
2021/04/24 03:42:11;;;;;;;49.33;18.50;;;;;;;;;;5064995;28;20044;-63
2021/04/24 03:44:56;;;;;;;54.35;20.10;;;;;;;;;;5074001;28;20041;-64
2021/04/24 03:47:44;;;;;;;49.20;19.58;;;;;;;;;;5073937;28;20040;-63
2021/04/24 03:50:29;;;;;;;47.55;18.52;;;;;;;;;;5073662;28;20048;-63
2021/04/24 03:53:14;;;;;;;68.22;25.15;;;;;;;;;;5056457;28;20103;-64
2021/04/24 03:56:00;;;;;;;55.92;22.35;;;;;;;;;;5053691;28;20572;-63
2021/04/24 03:58:45;;;;;;;45.08;18.30;;;;;;;;;;5053717;28;20419;-62
2021/04/24 04:01:31;;;;;;;30.67;13.55;;;;;;;;;;5053425;28;20436;-63
2021/04/24 04:04:16;;;;;;;39.65;16.23;;;;;;;;;;5033516;28;20053;-63
2021/04/24 04:07:01;;;;;;;55.03;20.92;;;;;;;;;;5033840;28;20053;-63
2021/04/24 04:09:47;;;;;;;28.23;12.40;;;;;;;;;;5033445;28;20073;-64
2021/04/24 04:12:32;;;;;;;31.73;11.90;;;;;;;;;;5044802;28;20052;-63
2021/04/24 04:15:18;;;;;;;26.25;11.15;;;;;;;;;;5073560;28;20041;-63
2021/04/24 04:18:10;;;;;;;23.83;10.27;;;;;;;;;;5073431;28;20048;-63
2021/04/24 04:20:56;;;;;;;25.38;11.48;;;;;;;;;;5072967;28;20048;-63
2021/04/24 04:23:41;;;;;;;24.95;12.13;;;;;;;;;;5071567;28;20108;-64
2021/04/24 04:26:27;;;;;;;26.58;11.02;;;;;;;;;;5073379;28;20064;-63
2021/04/24 04:29:12;;;;;;;24.60;9.85;;;;;;;;;;5073155;28;20045;-64
2021/04/24 04:31:58;;;;;;;25.25;10.57;;;;;;;;;;5072958;28;20127;-63
2021/04/24 04:34:43;;;;;;;20.73;9.32;;;;;;;;;;5055498;28;20049;-63
2021/04/24 04:37:29;;;;;;;17.85;8.13;;;;;;;;;;5052586;28;20111;-63
2021/04/24 04:40:15;;;;;;;16.70;7.25;;;;;;;;;;5052647;28;20517;-63
2021/04/24 04:43:00;;;;;;;19.20;7.47;;;;;;;;;;5052887;28;20199;-62
2021/04/24 04:45:46;;;;;;;16.35;7.85;;;;;;;;;;5032953;28;20103;-63
2021/04/24 04:48:31;;;;;;;22.25;8.48;;;;;;;;;;5032931;28;20041;-64
2021/04/24 04:51:16;;;;;;;20.98;9.60;;;;;;;;;;5032544;28;20046;-63
2021/04/24 04:54:02;;;;;;;17.50;8.27;;;;;;;;;;5044216;28;20098;-64
2021/04/24 04:56:47;;;;;;;24.23;10.82;;;;;;;;;;5072801;28;20053;-63
2021/04/24 04:59:32;;;;;;;19.58;9.80;;;;;;;;;;5072391;28;20044;-63
2021/04/24 05:02:18;;;;;;;31.00;13.80;;;;;;;;;;5072452;28;20127;-63
2021/04/24 05:05:04;;;;;;;34.63;14.55;;;;;;;;;;5060899;28;20446;-63
2021/04/24 05:07:49;;;;;;;51.40;20.15;;;;;;;;;;5052568;28;20099;-63
2021/04/24 05:10:34;;;;;;;46.08;16.90;;;;;;;;;;5052105;28;20121;-63
2021/04/24 05:13:20;;;;;;;34.95;16.00;;;;;;;;;;5052216;28;20487;-63
2021/04/24 05:16:05;;;;;;;28.33;13.68;;;;;;;;;;5054300;28;20094;-63
2021/04/24 05:18:51;;;;;;;26.55;11.00;;;;;;;;;;5072258;28;20071;-64
2021/04/24 05:21:36;;;;;;;22.73;10.15;;;;;;;;;;5071950;28;20045;-63
2021/04/24 05:24:23;;;;;;;18.85;10.35;;;;;;;;;;5072077;28;20063;-63
2021/04/24 05:27:09;;;;;;;23.67;10.38;;;;;;;;;;5032299;28;20046;-64
2021/04/24 05:29:54;;;;;;;25.38;10.77;;;;;;;;;;5032105;28;20045;-63
2021/04/24 05:32:39;;;;;;;27.40;14.65;;;;;;;;;;5032078;28;20117;-62
2021/04/24 05:35:25;;;;;;;34.50;16.85;;;;;;;;;;5043408;28;20040;-64
2021/04/24 05:38:10;;;;;;;29.88;14.45;;;;;;;;;;5072067;28;20040;-63
2021/04/24 05:40:56;;;;;;;38.35;18.00;;;;;;;;;;5071865;28;20048;-63
2021/04/24 05:43:41;;;;;;;43.55;19.98;;;;;;;;;;5071994;28;20048;-64
2021/04/24 05:46:27;;;;;;;48.42;19.15;;;;;;;;;;5045383;28;20064;-63
2021/04/24 05:49:12;;;;;;;31.55;14.90;;;;;;;;;;5051276;28;20136;-63
2021/04/24 05:51:58;;;;;;;27.48;15.45;;;;;;;;;;5051821;28;20072;-62
2021/04/24 05:54:44;;;;;;;36.45;14.02;;;;;;;;;;5051790;28;20049;-63
2021/04/24 05:57:29;;;;;;;23.88;13.15;;;;;;;;;;5068662;28;20051;-64
2021/04/24 06:00:18;;;;;;;22.85;12.13;;;;;;;;;;5069941;28;20512;-63
2021/04/24 06:03:03;;;;;;;28.65;13.88;;;;;;;;;;5071670;28;20052;-63
2021/04/24 06:05:48;;;;;;;18.85;12.35;;;;;;;;;;5071584;28;20131;-63
2021/04/24 06:08:34;;;;;;;24.63;12.30;;;;;;;;;;5031874;28;20136;-62
2021/04/24 06:11:19;;;;;;;22.63;11.85;;;;;;;;;;5031481;28;20128;-63
2021/04/24 06:14:04;;;;;;;27.33;12.48;;;;;;;;;;5031995;28;20049;-63
2021/04/24 06:16:50;;;;;;;21.10;11.27;;;;;;;;;;5043353;28;20044;-63
2021/04/24 06:19:35;;;;;;;20.15;11.50;;;;;;;;;;5071292;28;20126;-63
2021/04/24 06:22:21;;;;;;;27.58;12.35;;;;;;;;;;5071807;28;20048;-63
2021/04/24 06:25:07;;;;;;;21.02;10.80;;;;;;;;;;5071655;28;20044;-63
2021/04/24 06:27:53;;;;;;;22.00;10.73;;;;;;;;;;5059879;28;20045;-63
2021/04/24 06:30:38;;;;;;;23.90;12.07;;;;;;;;;;5036478;28;20478;-63
2021/04/24 06:33:23;;;;;;;16.20;9.45;;;;;;;;;;5051813;28;20055;-63
2021/04/24 06:36:08;;;;;;;18.80;10.30;;;;;;;;;;5051562;28;20115;-63
2021/04/24 06:38:55;;;;;;;19.40;8.77;;;;;;;;;;5068481;28;20065;-63
2021/04/24 06:41:40;;;;;;;16.83;9.15;;;;;;;;;;5071327;28;20073;-62
2021/04/24 06:44:26;;;;;;;14.57;8.13;;;;;;;;;;5071339;28;20049;-63
2021/04/24 06:47:11;;;;;;;12.85;8.15;;;;;;;;;;5069944;28;20049;-63
2021/04/24 06:49:56;;;;;;;21.50;8.88;;;;;;;;;;5069989;28;20041;-63
2021/04/24 06:52:42;;;;;;;15.43;8.05;;;;;;;;;;5031467;28;20518;-63
2021/04/24 06:55:27;;;;;;;12.95;6.25;;;;;;;;;;5036339;28;20073;-63
2021/04/24 06:58:13;;;;;;;8.68;4.97;;;;;;;;;;5071356;28;20044;-63
2021/04/24 07:00:58;;;;;;;13.52;5.80;;;;;;;;;;5072807;28;20046;-63
2021/04/24 07:03:43;;;;;;;10.88;5.28;;;;;;;;;;5074885;28;20063;-63
2021/04/24 07:06:29;;;;;;;11.77;5.47;;;;;;;;;;5066609;28;20646;-64
2021/04/24 07:09:14;;;;;;;7.72;3.70;;;;;;;;;;5054731;28;20088;-64
2021/04/24 07:12:00;;;;;;;11.00;4.65;;;;;;;;;;5054507;28;20055;-63
2021/04/24 07:14:45;;;;;;;14.93;4.72;;;;;;;;;;5054566;28;20045;-64
2021/04/24 07:17:30;;;;;;;8.57;5.03;;;;;;;;;;5066349;28;20069;-63
2021/04/24 07:20:18;;;;;;;9.43;4.68;;;;;;;;;;5074197;28;20399;-64
2021/04/24 07:23:03;;;;;;;9.70;4.57;;;;;;;;;;5074412;28;20082;-63
2021/04/24 07:25:49;;;;;;;9.98;4.40;;;;;;;;;;5074421;28;20044;-63
2021/04/24 07:28:34;;;;;;;18.23;6.43;;;;;;;;;;5054579;28;20103;-63
2021/04/24 07:31:20;;;;;;;6.65;4.20;;;;;;;;;;5054087;28;20049;-63
2021/04/24 07:34:07;;;;;;;6.45;3.00;;;;;;;;;;5054054;28;20045;-63
2021/04/24 07:36:53;;;;;;;5.53;2.78;;;;;;;;;;5056505;28;20053;-63
2021/04/24 07:39:38;;;;;;;5.78;2.95;;;;;;;;;;5073848;28;20493;-63
2021/04/24 07:42:23;;;;;;;9.88;3.90;;;;;;;;;;5073842;28;20453;-64
2021/04/24 07:45:09;;;;;;;12.70;4.30;;;;;;;;;;5073405;28;20124;-63
2021/04/24 07:47:55;;;;;;;9.25;3.28;;;;;;;;;;5065533;28;20045;-64
2021/04/24 07:50:40;;;;;;;8.82;4.53;;;;;;;;;;5053605;28;20120;-63
2021/04/24 07:53:25;;;;;;;12.27;4.65;;;;;;;;;;5053776;28;20037;-63
2021/04/24 07:56:11;;;;;;;8.63;4.20;;;;;;;;;;5053859;28;20411;-63
2021/04/24 07:58:56;;;;;;;8.85;4.72;;;;;;;;;;5067316;28;20147;-63
2021/04/24 08:01:41;;;;;;;14.95;5.38;;;;;;;;;;5073493;28;20044;-63
2021/04/24 08:04:27;;;;;;;10.98;3.72;;;;;;;;;;5073789;28;20074;-63
2021/04/24 08:07:12;;;;;;;6.53;2.45;;;;;;;;;;5073674;28;20074;-63
2021/04/24 08:09:58;;;;;;;6.55;3.90;;;;;;;;;;5053780;28;20048;-63
2021/04/24 08:12:46;;;;;;;11.25;4.65;;;;;;;;;;5052941;28;20487;-63
2021/04/24 08:15:31;;;;;;;9.70;4.05;;;;;;;;;;5053470;28;20041;-64
2021/04/24 08:18:17;;;;;;;6.85;4.25;;;;;;;;;;5055657;28;20509;-63
2021/04/24 08:21:02;;;;;;;10.43;3.90;;;;;;;;;;5073270;28;20057;-64
2021/04/24 08:23:47;;;;;;;9.35;4.25;;;;;;;;;;5073233;28;20498;-63
2021/04/24 08:26:32;;;;;;;9.35;3.60;;;;;;;;;;5073237;28;20048;-63
2021/04/24 08:29:19;;;;;;;10.85;4.10;;;;;;;;;;5064484;28;20396;-63
2021/04/24 08:32:04;;;;;;;10.93;4.50;;;;;;;;;;5053062;28;20499;-63
2021/04/24 08:34:50;;;;;;;8.75;3.67;;;;;;;;;;5052974;28;20045;-63
2021/04/24 08:37:35;;;;;;;9.65;5.32;;;;;;;;;;5053184;28;20045;-63
2021/04/24 08:40:20;;;;;;;6.43;3.70;;;;;;;;;;5053902;28;20045;-64
2021/04/24 08:43:06;;;;;;;8.00;3.58;;;;;;;;;;5052781;28;20048;-64
2021/04/24 08:45:51;;;;;;;10.05;3.95;;;;;;;;;;5053041;28;20049;-64
2021/04/24 08:48:36;;;;;;;6.22;2.80;;;;;;;;;;5037836;28;20495;-64
2021/04/24 08:51:22;;;;;;;8.05;4.00;;;;;;;;;;5057006;28;20036;-64
2021/04/24 08:54:07;;;;;;;5.30;2.88;;;;;;;;;;5072536;28;20045;-64
2021/04/24 08:56:53;;;;;;;11.30;4.85;;;;;;;;;;5072597;28;20041;-63
2021/04/24 08:59:38;;;;;;;8.20;3.33;;;;;;;;;;5069411;28;20041;-63
2021/04/24 09:02:23;;;;;;;7.45;2.95;;;;;;;;;;5052565;28;20053;-63
2021/04/24 09:05:09;;;;;;;7.28;3.10;;;;;;;;;;5052566;28;20095;-63
2021/04/24 09:08:01;;;;;;;6.35;2.92;;;;;;;;;;5052529;28;20053;-63
2021/04/24 09:10:46;;;;;;;6.90;3.25;;;;;;;;;;5061081;28;20477;-64
2021/04/24 09:13:31;;;;;;;7.50;3.25;;;;;;;;;;5072385;28;20045;-63
2021/04/24 09:16:23;;;;;;;7.43;2.50;;;;;;;;;;5057227;28;20059;-63
2021/04/24 09:19:27;;;;;;;7.97;2.10;;;;;;;;;;5072312;28;20445;-63
2021/04/24 09:22:19;;;;;;;7.88;3.15;;;;;;;;;;5053752;28;20052;-63
2021/04/24 09:25:05;;;;;;;5.97;3.17;;;;;;;;;;5052091;28;20057;-63
2021/04/24 09:27:50;;;;;;;7.28;2.55;;;;;;;;;;5052082;28;20491;-64
2021/04/24 09:30:37;;;;;;;6.32;2.58;;;;;;;;;;5053739;28;20045;-63
2021/04/24 09:33:22;;;;;;;6.95;2.58;;;;;;;;;;5071884;28;20095;-64
2021/04/24 09:36:08;;;;;;;8.70;2.58;;;;;;;;;;5072065;28;20037;-63
2021/04/24 09:38:53;;;;;;;8.45;2.67;;;;;;;;;;5072025;28;20414;-63
2021/04/24 09:41:41;;;;;;;9.32;2.78;;;;;;;;;;5064480;28;20045;-64
2021/04/24 09:44:26;;;;;;;9.55;3.35;;;;;;;;;;5052008;28;20135;-63
2021/04/24 09:47:11;;;;;;;12.15;2.85;;;;;;;;;;5052026;28;20053;-63
2021/04/24 09:49:57;;;;;;;4.93;2.53;;;;;;;;;;5051605;28;20049;-63
2021/04/24 09:52:42;;;;;;;8.93;3.10;;;;;;;;;;5064679;28;20072;-63
2021/04/24 09:55:36;;;;;;;8.30;2.72;;;;;;;;;;5071956;28;20128;-63
2021/04/24 09:58:29;;;;;;;5.93;2.60;;;;;;;;;;5071856;28;20124;-64
2021/04/24 10:01:20;;;;;;;11.07;3.05;;;;;;;;;;5071690;28;20045;-63
2021/04/24 10:04:05;;;;;;;5.85;2.40;;;;;;;;;;5031850;28;20049;-64
2021/04/24 10:06:54;;;;;;;8.75;2.55;;;;;;;;;;5031793;28;20048;-64
2021/04/24 10:09:39;;;;;;;7.35;2.88;;;;;;;;;;5031769;28;20053;-64
2021/04/24 10:12:24;;;;;;;5.10;1.85;;;;;;;;;;5022346;28;20041;-63
2021/04/24 10:15:10;;;;;;;4.70;2.10;;;;;;;;;;5036600;28;20041;-64
2021/04/24 10:17:55;;;;;;;7.85;2.58;;;;;;;;;;5051782;28;20048;-64
2021/04/24 10:20:42;;;;;;;9.57;3.30;;;;;;;;;;5036507;28;20045;-63
2021/04/24 10:23:28;;;;;;;6.47;2.33;;;;;;;;;;5060768;28;20052;-63
2021/04/24 10:26:13;;;;;;;5.75;2.17;;;;;;;;;;5071585;28;20601;-64
2021/04/24 10:29:00;;;;;;;5.75;2.17;;;;;;;;;;5071592;28;20045;-63
2021/04/24 10:31:45;;;;;;;7.25;2.20;;;;;;;;;;5071283;28;20048;-63
2021/04/24 10:34:30;;;;;;;6.28;2.10;;;;;;;;;;5057064;28;20415;-64
2021/04/24 10:37:16;;;;;;;7.13;2.05;;;;;;;;;;5055218;28;20068;-63
2021/04/24 10:40:01;;;;;;;7.60;1.90;;;;;;;;;;5054826;28;20045;-63
2021/04/24 10:42:53;;;;;;;5.43;2.28;;;;;;;;;;5055114;28;20053;-63
2021/04/24 10:45:39;;;;;;;9.40;2.73;;;;;;;;;;5028281;28;20041;-63
2021/04/24 10:48:25;;;;;;;7.30;2.10;;;;;;;;;;5054494;28;20049;-64
2021/04/24 10:51:11;;;;;;;7.47;1.88;;;;;;;;;;5041078;28;20057;-63
2021/04/24 10:54:11;;;;;;;11.25;2.10;;;;;;;;;;5054893;28;20052;-64
2021/04/24 10:56:57;;;;;;;6.07;1.67;;;;;;;;;;5054757;28;20048;-64
2021/04/24 10:59:44;;;;;;;7.70;1.67;;;;;;;;;;5054372;28;20052;-63
2021/04/24 11:02:39;;;;;;;7.05;1.75;;;;;;;;;;5039751;28;20071;-63
2021/04/24 11:05:30;;;;;;;4.80;1.30;;;;;;;;;;5054835;28;20045;-63
2021/04/24 11:08:21;;;;;;;4.45;1.33;;;;;;;;;;5054670;28;20053;-63
2021/04/24 11:11:10;;;;;;;4.60;1.13;;;;;;;;;;5060741;28;20094;-64
2021/04/24 11:13:56;;;;;;;4.05;1.00;;;;;;;;;;5074750;28;20060;-64
2021/04/24 11:16:44;;;;;;;5.25;1.40;;;;;;;;;;5074687;28;20071;-64
2021/04/24 11:19:41;;;;;;;3.88;1.50;;;;;;;;;;5074273;28;20131;-63
2021/04/24 11:22:32;;;;;;;2.90;1.30;;;;;;;;;;5059691;28;20083;-64
2021/04/24 11:25:26;;;;;;;6.07;2.05;;;;;;;;;;5054392;28;20041;-64
2021/04/24 11:28:13;;;;;;;3.45;1.00;;;;;;;;;;5054341;28;20506;-64
2021/04/24 11:30:59;;;;;;;6.97;2.15;;;;;;;;;;5054124;28;20041;-64
2021/04/24 11:33:45;;;;;;;3.70;1.50;;;;;;;;;;5054168;28;20049;-64
2021/04/24 11:36:31;;;;;;;3.80;1.55;;;;;;;;;;5054152;28;20044;-64
2021/04/24 11:39:16;;;;;;;3.33;1.27;;;;;;;;;;5039299;28;20053;-63
2021/04/24 11:42:01;;;;;;;4.75;1.55;;;;;;;;;;5058729;28;20048;-64
2021/04/24 11:44:46;;;;;;;9.95;1.67;;;;;;;;;;5044892;28;20053;-64
2021/04/24 11:47:40;;;;;;;3.50;1.58;;;;;;;;;;5073559;28;20049;-64
2021/04/24 11:50:25;;;;;;;8.20;1.67;;;;;;;;;;5073774;28;20048;-64
2021/04/24 11:53:11;;;;;;;4.13;1.40;;;;;;;;;;5047300;28;20045;-64
2021/04/24 11:55:56;;;;;;;6.78;1.58;;;;;;;;;;5053856;28;20049;-64
2021/04/24 11:58:44;;;;;;;5.50;1.52;;;;;;;;;;5053903;28;20055;-63
2021/04/24 12:01:29;;;;;;;6.07;1.45;;;;;;;;;;5053424;28;20132;-62
2021/04/24 12:04:25;;;;;;;5.10;1.80;;;;;;;;;;5070735;28;20040;-62
2021/04/24 12:07:14;;;;;;;3.85;1.52;;;;;;;;;;5073664;28;20044;-62
2021/04/24 12:10:00;;;;;;;5.20;1.30;;;;;;;;;;5073497;28;20053;-62
2021/04/24 12:12:46;;;;;;;6.90;1.30;;;;;;;;;;5056045;28;20048;-61
2021/04/24 12:15:31;;;;;;;8.38;1.83;;;;;;;;;;5053512;28;20446;-62
2021/04/24 12:18:17;;;;;;;7.07;1.50;;;;;;;;;;5053622;28;20041;-62
2021/04/24 12:21:03;;;;;;;6.20;1.95;;;;;;;;;;5053122;28;20510;-62
2021/04/24 12:23:49;;;;;;;3.22;1.52;;;;;;;;;;5060750;28;20048;-62
2021/04/24 12:26:34;;;;;;;5.72;1.08;;;;;;;;;;5058403;28;20059;-62
2021/04/24 12:29:38;;;;;;;2.50;1.05;;;;;;;;;;5073186;28;20133;-63
2021/04/24 12:32:26;;;;;;;3.97;1.20;;;;;;;;;;5073069;28;20045;-63
2021/04/24 12:35:12;;;;;;;2.65;1.05;;;;;;;;;;5111804;22;20051;-63
2021/04/24 12:38:01;;;;;;;12.32;2.40;;;;;;;;;;5074179;28;20051;-64
2021/04/24 12:40:47;;;;;;;4.70;1.60;;;;;;;;;;5072949;28;20044;-64
2021/04/24 12:43:39;;;;;;;3.58;1.45;;;;;;;;;;5072634;28;20119;-64
2021/04/24 12:46:24;;;;;;;3.43;1.30;;;;;;;;;;5052938;28;20510;-64
2021/04/24 12:49:09;;;;;;;6.55;1.52;;;;;;;;;;5052976;28;20045;-65
2021/04/24 12:52:02;;;;;;;3.00;1.13;;;;;;;;;;5037919;28;20053;-64
2021/04/24 12:55:02;;;;;;;2.78;0.82;;;;;;;;;;5053109;28;20118;-65
2021/04/24 12:57:54;;;;;;;2.53;1.20;;;;;;;;;;5052474;28;20406;-64
2021/04/24 13:00:42;;;;;;;4.73;1.23;;;;;;;;;;5052713;28;20045;-65
2021/04/24 13:03:33;;;;;;;7.85;1.30;;;;;;;;;;5052551;28;20498;-64
2021/04/24 13:06:23;;;;;;;2.85;0.95;;;;;;;;;;5069429;28;20048;-64
2021/04/24 13:09:19;;;;;;;4.13;1.42;;;;;;;;;;5072495;28;20041;-64
2021/04/24 13:12:09;;;;;;;4.03;1.25;;;;;;;;;;5072277;28;20048;-64
2021/04/24 13:14:54;;;;;;;5.80;1.30;;;;;;;;;;5069744;28;20053;-64
2021/04/24 13:17:43;;;;;;;7.22;1.52;;;;;;;;;;5052414;28;20045;-64
2021/04/24 13:20:29;;;;;;;3.17;1.60;;;;;;;;;;5052118;28;20041;-63
2021/04/24 13:23:14;;;;;;;1.88;0.65;;;;;;;;;;5052240;28;20048;-65
2021/04/24 13:26:01;;;;;;;1.70;0.68;;;;;;;;;;5060601;28;20033;-64
2021/04/24 13:28:46;;;;;;;1.42;0.77;;;;;;;;;;5072160;28;20061;-63
2021/04/24 13:31:31;;;;;;;4.60;1.35;;;;;;;;;;5072100;28;20041;-64
2021/04/24 13:34:17;;;;;;;5.28;1.25;;;;;;;;;;5072067;28;20044;-64
2021/04/24 13:37:13;;;;;;;3.00;1.08;;;;;;;;;;5057550;28;20487;-64
2021/04/24 13:40:02;;;;;;;2.90;1.52;;;;;;;;;;5051909;28;20055;-64
2021/04/24 13:42:47;;;;;;;4.15;1.25;;;;;;;;;;5052060;28;20077;-65
2021/04/24 13:45:33;;;;;;;2.50;0.95;;;;;;;;;;5051729;28;20049;-64
2021/04/24 13:48:25;;;;;;;4.00;1.58;;;;;;;;;;5051914;28;20495;-63
2021/04/24 13:51:10;;;;;;;4.72;1.38;;;;;;;;;;5044280;28;20052;-64
2021/04/24 13:53:55;;;;;;;3.97;1.58;;;;;;;;;;5068606;28;20044;-65
2021/04/24 13:56:41;;;;;;;4.00;1.38;;;;;;;;;;5071553;28;20040;-65
2021/04/24 13:59:26;;;;;;;5.63;0.90;;;;;;;;;;5071970;28;20070;-64
2021/04/24 14:02:11;;;;;;;4.03;1.42;;;;;;;;;;5071899;28;20076;-64
2021/04/24 14:04:58;;;;;;;4.20;1.45;;;;;;;;;;5071013;28;20554;-64
2021/04/24 14:07:43;;;;;;;3.05;1.20;;;;;;;;;;5060055;28;20049;-64
2021/04/24 14:10:28;;;;;;;4.80;1.38;;;;;;;;;;5054569;28;20049;-64
2021/04/24 14:13:14;;;;;;;4.13;1.20;;;;;;;;;;5055726;28;20041;-64
2021/04/24 14:15:59;;;;;;;3.65;1.63;;;;;;;;;;5056020;28;20048;-65
2021/04/24 14:18:45;;;;;;;3.05;0.95;;;;;;;;;;5072109;28;20502;-65
2021/04/24 14:21:30;;;;;;;4.10;1.17;;;;;;;;;;5075722;28;20045;-65
2021/04/24 14:24:15;;;;;;;1.20;0.85;;;;;;;;;;5075784;28;20417;-65
2021/04/24 14:27:02;;;;;;;4.82;0.93;;;;;;;;;;5075532;28;20052;-65
2021/04/24 14:29:47;;;;;;;2.75;0.82;;;;;;;;;;5054481;28;20045;-65
2021/04/24 14:32:32;;;;;;;3.70;1.08;;;;;;;;;;5055359;28;20041;-65
2021/04/24 14:35:18;;;;;;;3.22;0.93;;;;;;;;;;5055157;28;20498;-65
2021/04/24 14:38:04;;;;;;;1.10;0.63;;;;;;;;;;5055565;28;20045;-65
2021/04/24 14:40:49;;;;;;;6.78;1.50;;;;;;;;;;5055040;28;20076;-65
2021/04/24 14:43:34;;;;;;;2.60;0.98;;;;;;;;;;5055181;28;20152;-65
2021/04/24 14:46:19;;;;;;;2.55;1.30;;;;;;;;;;5056499;28;20132;-65
2021/04/24 14:49:05;;;;;;;4.05;1.20;;;;;;;;;;5055096;28;20487;-66
2021/04/24 14:51:50;;;;;;;1.67;0.80;;;;;;;;;;5054997;28;20048;-65
2021/04/24 14:54:35;;;;;;;3.03;1.10;;;;;;;;;;5055070;28;20053;-64
2021/04/24 14:57:21;;;;;;;1.90;0.90;;;;;;;;;;5069502;28;20097;-65
2021/04/24 15:00:07;;;;;;;2.45;0.80;;;;;;;;;;5074755;28;20041;-65
2021/04/24 15:02:52;;;;;;;3.00;1.10;;;;;;;;;;5074820;28;20052;-65
2021/04/24 15:05:38;;;;;;;2.15;0.80;;;;;;;;;;5074625;28;20090;-65
2021/04/24 15:08:23;;;;;;;3.88;0.93;;;;;;;;;;5054824;28;20041;-65
2021/04/24 15:11:08;;;;;;;2.58;0.88;;;;;;;;;;5054340;28;20514;-65
2021/04/24 15:13:56;;;;;;;2.72;0.98;;;;;;;;;;5054538;28;20119;-65
2021/04/24 15:16:43;;;;;;;3.45;1.00;;;;;;;;;;5054763;28;20044;-65
2021/04/24 15:19:28;;;;;;;4.10;1.15;;;;;;;;;;5054200;28;20491;-65
2021/04/24 15:22:14;;;;;;;1.30;0.70;;;;;;;;;;5054617;28;20431;-65
2021/04/24 15:25:00;;;;;;;3.92;0.98;;;;;;;;;;5054379;28;20166;-65
2021/04/24 15:27:47;;;;;;;2.53;1.17;;;;;;;;;;5055438;28;20041;-66
2021/04/24 15:30:32;;;;;;;13.75;1.48;;;;;;;;;;5063486;28;20076;-64
2021/04/24 15:33:18;;;;;;;1.67;1.08;;;;;;;;;;5054191;28;20056;-64
2021/04/24 15:36:03;;;;;;;1.38;0.90;;;;;;;;;;5054146;28;20045;-64
2021/04/24 15:38:49;;;;;;;6.95;1.50;;;;;;;;;;5069180;28;20040;-64
2021/04/24 15:41:34;;;;;;;2.38;1.20;;;;;;;;;;5073979;28;20102;-64
2021/04/24 15:44:19;;;;;;;3.47;0.90;;;;;;;;;;5073930;28;20052;-64
2021/04/24 15:47:05;;;;;;;4.03;1.30;;;;;;;;;;5074275;28;20053;-64
2021/04/24 15:49:50;;;;;;;1.23;0.82;;;;;;;;;;5053732;28;20124;-64
2021/04/24 15:52:35;;;;;;;1.90;0.85;;;;;;;;;;5053770;28;20439;-65
2021/04/24 15:55:21;;;;;;;3.72;0.90;;;;;;;;;;5054002;28;20049;-63
2021/04/24 15:58:07;;;;;;;1.38;0.80;;;;;;;;;;5057137;28;20040;-64
2021/04/24 16:00:52;;;;;;;1.80;1.13;;;;;;;;;;5073318;28;20040;-63
2021/04/24 16:03:37;;;;;;;1.20;0.88;;;;;;;;;;5073888;28;20048;-63
2021/04/24 16:06:22;;;;;;;3.70;1.50;;;;;;;;;;5073689;28;20041;-63
2021/04/24 16:09:08;;;;;;;2.33;1.10;;;;;;;;;;5065005;28;20049;-64
2021/04/24 16:11:53;;;;;;;1.50;0.95;;;;;;;;;;5053492;28;20557;-65
2021/04/24 16:14:39;;;;;;;1.65;1.10;;;;;;;;;;5053442;28;20053;-65
2021/04/24 16:17:24;;;;;;;4.38;1.35;;;;;;;;;;5053342;28;20502;-65
2021/04/24 16:20:11;;;;;;;7.72;1.80;;;;;;;;;;5067812;28;20175;-65
2021/04/24 16:22:56;;;;;;;2.75;1.27;;;;;;;;;;5073346;28;20048;-64